Terminal Aerodrome Forecast
Issued by NWS Cleveland, OH

Home | Current Version | Previous Version | Graphics & Text | Print | Product List | Glossary On
Versions: 1 2 3 4 5 6 7 8 9 10 11 12 13 14 15 16 17 18 19 20 21 22 23
000
FTUS41 KCLE 020329 AAA
TAFMFD
TAF AMD
KMFD 020329Z 0203/0224 04010KT 6SM BR BKN007 OVC012
     FM020400 04006KT 4SM -SHRA BR OVC007
      TEMPO 0204/0206 2SM TSRA OVC004CB
     FM020600 06006KT 2SM -SHRA BR OVC007
     FM021000 02006KT 1SM BR OVC002
     FM021600 02008KT 4SM BR OVC004
     FM022200 02006KT P6SM OVC010=

USA.gov is the U.S. government's official web portal to all federal, state and local government web resources and services.